createdAt,value
2022-10-11T00:02:04.310Z,100409.95
2022-10-11T00:04:35.547Z,100408.81
2022-10-11T00:07:06.947Z,100413.89
2022-10-11T00:09:38.234Z,100414.85
2022-10-11T00:12:09.928Z,100412.63
2022-10-11T00:14:41.277Z,100412.01
2022-10-11T00:17:12.403Z,100411.36
2022-10-11T00:19:43.650Z,100411.66
2022-10-11T00:22:14.878Z,100412.21
2022-10-11T00:24:46.060Z,100409.27
2022-10-11T00:27:17.353Z,100404.52
2022-10-11T00:29:48.574Z,100408.11
2022-10-11T00:32:19.920Z,100408.11
2022-10-11T00:34:51.208Z,100411.33
2022-10-11T00:37:22.747Z,100412.14
2022-10-11T00:39:54.670Z,100414.45
2022-10-11T00:42:26.294Z,100412.91
2022-10-11T00:45:37.087Z,100412.89
2022-10-11T00:48:13.161Z,100411.08
2022-10-11T00:50:45.064Z,100408.77
2022-10-11T00:53:17.138Z,100408.07
2022-10-11T00:55:53.021Z,100409.52
2022-10-11T00:58:25.883Z,100403.83
2022-10-11T01:00:57.512Z,100403.89
2022-10-11T01:03:31.680Z,100407.08
2022-10-11T01:06:04.033Z,100406.89
2022-10-11T01:08:35.592Z,100403.81
2022-10-11T01:11:07.361Z,100399.95
2022-10-11T01:13:49.108Z,100394.73
2022-10-11T01:16:27.692Z,100394.23
2022-10-11T01:19:12.891Z,100397.55
2022-10-11T01:21:49.982Z,100394.48
2022-10-11T01:24:55.662Z,100390.15
2022-10-11T01:28:01.969Z,100385.38
2022-10-11T01:30:35.798Z,100391.39
2022-10-11T01:33:16.993Z,100390.77
2022-10-11T01:35:52.572Z,100391.40
2022-10-11T01:38:31.629Z,100390.00
2022-10-11T01:41:08.494Z,100392.38
2022-10-11T01:43:41.355Z,100387.29
2022-10-11T01:46:14.389Z,100388.81
2022-10-11T01:48:52.900Z,100389.42
2022-10-11T01:51:27.580Z,100385.91
2022-10-11T01:54:19.530Z,100394.34
2022-10-11T01:57:26.458Z,100391.67
2022-10-11T02:00:05.444Z,100390.17
2022-10-11T02:02:50.582Z,100388.88
2022-10-11T02:05:23.163Z,100393.39
2022-10-11T02:08:01.425Z,100391.36
2022-10-11T02:10:38.961Z,100389.42
2022-10-11T02:13:16.742Z,100386.95
2022-10-11T02:15:51.154Z,100389.08
2022-10-11T02:18:25.935Z,100389.82
2022-10-11T02:20:58.155Z,100389.58
2022-10-11T02:23:32.657Z,100384.84
2022-10-11T02:26:05.482Z,100387.44
2022-10-11T02:28:39.993Z,100388.14
2022-10-11T02:31:12.954Z,100388.20
2022-10-11T02:33:46.933Z,100388.31
2022-10-11T02:36:25.087Z,100389.66
2022-10-11T02:39:05.326Z,100393.27
2022-10-11T02:41:40.678Z,100395.27
2022-10-11T02:44:15.577Z,100390.13
2022-10-11T02:46:49.711Z,100389.02
2022-10-11T02:49:21.462Z,100392.77
2022-10-11T02:51:52.776Z,100393.98
2022-10-11T02:54:24.250Z,100395.54
2022-10-11T02:56:55.507Z,100391.98
2022-10-11T02:59:26.735Z,100393.95
2022-10-11T03:01:58.138Z,100388.09
2022-10-11T03:04:29.478Z,100397.80
2022-10-11T03:07:00.701Z,100396.94
2022-10-11T03:09:32.015Z,100403.59
2022-10-11T03:12:03.236Z,100406.77
2022-10-11T03:14:34.780Z,100405.83
2022-10-11T03:17:31.062Z,100406.02
2022-10-11T03:19:57.961Z,100406.95
2022-10-11T03:22:32.937Z,100410.32
2022-10-11T03:25:09.949Z,100414.79
2022-10-11T03:27:41.175Z,100422.02
2022-10-11T03:30:18.018Z,100423.17
2022-10-11T03:32:49.701Z,100429.45
2022-10-11T03:35:21.155Z,100433.38
2022-10-11T03:37:52.539Z,100437.69
2022-10-11T03:40:23.903Z,100437.83
2022-10-11T03:42:56.834Z,100432.34
2022-10-11T03:45:28.099Z,100430.54
2022-10-11T03:47:59.340Z,100430.71
2022-10-11T03:50:31.391Z,100434.80
2022-10-11T03:53:02.630Z,100432.60
2022-10-11T03:55:34.433Z,100433.21
2022-10-11T03:58:05.666Z,100438.31
2022-10-11T04:00:37.546Z,100439.59
2022-10-11T04:03:08.886Z,100435.29
2022-10-11T04:05:40.194Z,100437.55
2022-10-11T04:08:12.425Z,100440.50
2022-10-11T04:10:43.988Z,100445.52
2022-10-11T04:13:15.355Z,100449.84
2022-10-11T04:15:46.602Z,100455.80
2022-10-11T04:18:17.995Z,100452.02
2022-10-11T04:20:49.172Z,100455.01
2022-10-11T04:23:20.585Z,100466.53
2022-10-11T04:25:51.761Z,100475.66
2022-10-11T04:28:23.361Z,100470.73
2022-10-11T04:30:55.399Z,100474.95
2022-10-11T04:33:26.955Z,100477.38
2022-10-11T04:35:58.725Z,100474.12
2022-10-11T04:38:30.025Z,100478.05
2022-10-11T04:41:09.024Z,100474.52
2022-10-11T04:43:40.688Z,100473.38
2022-10-11T04:46:12.059Z,100478.14
2022-10-11T04:48:43.440Z,100487.48
2022-10-11T04:51:14.773Z,100488.73
2022-10-11T04:53:46.160Z,100487.16
2022-10-11T04:56:18.762Z,100489.55
2022-10-11T04:58:52.213Z,100488.84
2022-10-11T05:01:23.907Z,100490.69
2022-10-11T05:03:55.114Z,100499.69
2022-10-11T05:06:26.650Z,100500.02
2022-10-11T05:08:57.901Z,100501.20
2022-10-11T05:11:29.463Z,100503.21
2022-10-11T05:14:00.718Z,100503.39
2022-10-11T05:16:32.182Z,100504.73
2022-10-11T05:19:03.385Z,100506.70
2022-10-11T05:21:34.720Z,100509.17
2022-10-11T05:24:06.356Z,100516.97
2022-10-11T05:26:37.600Z,100519.56
2022-10-11T05:29:08.897Z,100519.84
2022-10-11T05:31:40.218Z,100520.84
2022-10-11T05:34:11.653Z,100521.34
2022-10-11T05:36:42.954Z,100529.08
2022-10-11T05:39:14.178Z,100535.63
2022-10-11T05:41:45.476Z,100537.15
2022-10-11T05:44:16.686Z,100536.83
2022-10-11T05:46:48.851Z,100537.56
2022-10-11T05:49:20.255Z,100541.40
2022-10-11T05:51:51.579Z,100547.39
2022-10-11T05:54:23.619Z,100548.38
2022-10-11T05:56:54.874Z,100551.41
2022-10-11T05:59:26.230Z,100557.94
2022-10-11T06:01:57.994Z,100562.27
2022-10-11T06:04:29.793Z,100563.87
2022-10-11T06:07:01.642Z,100566.53
2022-10-11T06:09:35.020Z,100572.37
2022-10-11T06:12:07.122Z,100578.45
2022-10-11T06:14:39.109Z,100587.56
2022-10-11T06:17:10.340Z,100590.69
2022-10-11T06:19:41.815Z,100597.96
2022-10-11T06:22:15.130Z,100601.51
2022-10-11T06:24:46.545Z,100607.91
2022-10-11T06:27:17.754Z,100606.41
2022-10-11T06:29:49.328Z,100611.55
2022-10-11T06:32:20.913Z,100621.95
2022-10-11T06:34:52.347Z,100625.74
2022-10-11T06:37:24.150Z,100632.69
2022-10-11T06:39:56.015Z,100639.45
2022-10-11T06:42:27.390Z,100643.64
2022-10-11T06:44:58.781Z,100649.52
2022-10-11T06:47:30.164Z,100652.70
2022-10-11T06:50:01.392Z,100655.33
2022-10-11T06:52:32.640Z,100660.55
2022-10-11T06:55:03.864Z,100665.64
2022-10-11T06:57:35.083Z,100677.45
2022-10-11T07:00:12.378Z,100683.66
2022-10-11T07:02:44.140Z,100696.94
2022-10-11T07:05:15.528Z,100700.13
2022-10-11T07:07:47.432Z,100702.23
2022-10-11T07:10:18.918Z,100699.26
2022-10-11T07:12:50.378Z,100704.77
2022-10-11T07:15:22.370Z,100703.16
2022-10-11T07:17:53.675Z,100700.36
2022-10-11T07:20:25.758Z,100696.78
2022-10-11T07:22:57.697Z,100699.33
2022-10-11T07:25:29.084Z,100699.80
2022-10-11T07:28:00.519Z,100702.96
2022-10-11T07:30:32.079Z,100713.05
2022-10-11T07:33:03.391Z,100719.93
2022-10-11T07:35:35.764Z,100723.39
2022-10-11T07:38:07.912Z,100723.28
2022-10-11T07:40:44.960Z,100727.41
2022-10-11T07:43:16.442Z,100733.48
2022-10-11T07:45:49.339Z,100739.15
2022-10-11T07:48:21.015Z,100737.09
2022-10-11T07:50:52.520Z,100741.27
2022-10-11T07:53:24.050Z,100744.03
2022-10-11T07:55:55.344Z,100747.80
2022-10-11T07:58:26.688Z,100752.60
2022-10-11T08:00:58.159Z,100746.09
2022-10-11T08:03:29.533Z,100745.59
2022-10-11T08:06:05.267Z,100745.23
2022-10-11T08:08:37.221Z,100750.70
2022-10-11T08:11:08.805Z,100752.08
2022-10-11T08:13:40.120Z,100751.16
2022-10-11T08:16:15.426Z,100756.71
2022-10-11T08:18:46.774Z,100759.39
2022-10-11T08:21:19.820Z,100764.48
2022-10-11T08:23:51.126Z,100763.95
2022-10-11T08:26:22.332Z,100768.35
2022-10-11T08:28:53.622Z,100769.66
2022-10-11T08:31:24.936Z,100775.08
2022-10-11T08:33:56.362Z,100774.21
2022-10-11T08:36:27.549Z,100777.51
2022-10-11T08:38:59.420Z,100775.81
2022-10-11T08:41:39.631Z,100782.91
2022-10-11T08:44:25.827Z,100781.18
2022-10-11T08:47:11.419Z,100784.95
2022-10-11T08:49:43.155Z,100787.92
2022-10-11T08:52:22.356Z,100792.16
2022-10-11T08:54:57.965Z,100792.27
2022-10-11T08:57:35.203Z,100792.23
2022-10-11T09:00:10.640Z,100797.17
2022-10-11T09:03:08.967Z,100800.39
2022-10-11T09:05:56.428Z,100800.77
2022-10-11T09:08:35.059Z,100802.21
2022-10-11T09:11:17.395Z,100803.33
2022-10-11T09:14:09.042Z,100809.13
2022-10-11T09:16:55.417Z,100810.55
2022-10-11T09:19:47.324Z,100812.19
2022-10-11T09:22:30.439Z,100815.71
2022-10-11T09:25:17.477Z,100814.98
2022-10-11T09:28:02.826Z,100818.55
2022-10-11T09:30:35.561Z,100824.15
2022-10-11T09:33:21.858Z,100826.24
2022-10-11T09:35:54.377Z,100826.95
2022-10-11T09:38:42.597Z,100830.44
2022-10-11T09:41:23.248Z,100829.36
2022-10-11T09:43:55.791Z,100828.17
2022-10-11T09:46:33.268Z,100828.05
2022-10-11T09:49:09.266Z,100826.45
2022-10-11T09:51:42.768Z,100822.15
2022-10-11T09:54:14.175Z,100830.11
2022-10-11T09:56:47.288Z,100833.92
2022-10-11T09:59:32.257Z,100839.71
2022-10-11T10:02:20.430Z,100839.90
2022-10-11T10:05:17.045Z,100838.31
2022-10-11T10:08:14.968Z,100837.02
2022-10-11T10:10:55.741Z,100839.49
2022-10-11T10:13:38.322Z,100843.88
2022-10-11T10:16:20.302Z,100844.08
2022-10-11T10:18:56.197Z,100844.13
2022-10-11T10:21:34.162Z,100847.43
2022-10-11T10:24:10.698Z,100848.89
2022-10-11T10:26:41.984Z,100848.20
2022-10-11T10:29:21.362Z,100846.48
2022-10-11T10:32:14.603Z,100844.73
2022-10-11T10:35:08.411Z,100847.00
2022-10-11T10:37:43.814Z,100847.98
2022-10-11T10:40:19.837Z,100853.33
2022-10-11T10:42:51.628Z,100853.96
2022-10-11T10:45:33.601Z,100855.61
2022-10-11T10:48:18.502Z,100849.43
2022-10-11T10:50:57.290Z,100850.41
2022-10-11T10:53:34.570Z,100855.63
2022-10-11T10:56:12.199Z,100863.76
2022-10-11T10:59:01.707Z,100857.14
2022-10-11T11:01:39.254Z,100860.31
2022-10-11T11:04:23.635Z,100865.95
2022-10-11T11:07:00.245Z,100874.41
2022-10-11T11:09:41.580Z,100873.54
2022-10-11T11:12:26.390Z,100873.98
2022-10-11T11:15:04.455Z,100871.17
2022-10-11T11:17:48.851Z,100877.62
2022-10-11T11:20:29.600Z,100874.27
2022-10-11T11:23:10.432Z,100876.55
2022-10-11T11:25:50.201Z,100877.79
2022-10-11T11:28:40.502Z,100872.43
2022-10-11T11:31:22.891Z,100876.91
2022-10-11T11:34:06.640Z,100872.48
2022-10-11T11:36:43.890Z,100876.52
2022-10-11T11:39:20.535Z,100871.25
2022-10-11T11:41:57.652Z,100882.05
2022-10-11T11:44:34.559Z,100885.13
2022-10-11T11:47:10.908Z,100888.30
2022-10-11T11:49:46.651Z,100887.14
2022-10-11T11:52:27.551Z,100889.45
2022-10-11T11:55:06.809Z,100886.45
2022-10-11T11:57:51.229Z,100884.39
2022-10-11T12:00:25.418Z,100889.31
2022-10-11T12:03:00.332Z,100886.60
2022-10-11T12:05:35.162Z,100885.64
2022-10-11T12:08:09.168Z,100886.37
2022-10-11T12:10:55.999Z,100886.16
2022-10-11T12:13:32.365Z,100893.27
2022-10-11T12:16:12.578Z,100888.35
2022-10-11T12:19:01.048Z,100894.39
2022-10-11T12:21:35.223Z,100896.78
2022-10-11T12:24:14.649Z,100898.48
2022-10-11T12:26:46.903Z,100895.70
2022-10-11T12:29:45.667Z,100893.41
2022-10-11T12:32:51.389Z,100891.27
2022-10-11T12:35:38.118Z,100890.67
2022-10-11T12:38:19.247Z,100893.48
2022-10-11T12:40:54.564Z,100894.35
2022-10-11T12:43:38.321Z,100898.96
2022-10-11T12:46:43.562Z,100895.17
2022-10-11T12:49:33.807Z,100904.97
2022-10-11T12:52:07.234Z,100903.63
2022-10-11T12:55:01.714Z,100909.11
2022-10-11T12:58:07.873Z,100904.47
2022-10-11T13:01:05.458Z,100903.27
2022-10-11T13:03:40.821Z,100902.21
2022-10-11T13:06:21.110Z,100906.40
2022-10-11T13:08:57.245Z,100909.23
2022-10-11T13:11:32.510Z,100907.17
2022-10-11T13:14:11.608Z,100911.67
2022-10-11T13:17:08.953Z,100908.48
2022-10-11T13:22:22.715Z,100907.14
2022-10-11T13:24:57.053Z,100907.52
2022-10-11T13:27:29.892Z,100907.54
2022-10-11T13:30:04.621Z,100911.16
2022-10-11T13:32:37.565Z,100915.02
2022-10-11T13:35:24.824Z,100917.23
2022-10-11T13:37:56.647Z,100915.09
2022-10-11T13:40:31.061Z,100918.29
2022-10-11T13:43:05.679Z,100915.26
2022-10-11T13:45:39.454Z,100917.91
2022-10-11T13:48:15.735Z,100923.81
2022-10-11T13:50:52.672Z,100925.23
2022-10-11T13:53:27.565Z,100922.50
2022-10-11T13:56:01.506Z,100922.60
2022-10-11T13:58:38.866Z,100920.59
2022-10-11T14:01:21.483Z,100920.58
2022-10-11T14:04:00.599Z,100922.04
2022-10-11T14:06:45.632Z,100921.58
2022-10-11T14:09:23.469Z,100920.59
2022-10-11T14:11:55.655Z,100920.85
2022-10-11T14:14:44.271Z,100922.65
2022-10-11T14:17:21.975Z,100924.36
2022-10-11T14:20:15.743Z,100926.46
2022-10-11T14:22:47.323Z,100927.49
2022-10-11T14:25:19.346Z,100927.45
2022-10-11T14:27:52.535Z,100928.99
2022-10-11T14:30:27.574Z,100929.70
2022-10-11T14:33:02.949Z,100932.38
2022-10-11T14:35:36.376Z,100935.90
2022-10-11T14:38:07.980Z,100934.30
2022-10-11T14:40:39.560Z,100938.11
2022-10-11T14:43:10.966Z,100941.09
2022-10-11T14:45:42.629Z,100944.80
2022-10-11T14:48:15.518Z,100947.94
2022-10-11T14:50:51.660Z,100947.86
2022-10-11T14:53:23.270Z,100950.80
2022-10-11T14:55:55.041Z,100952.15
2022-10-11T14:58:26.720Z,100951.53
2022-10-11T15:00:58.235Z,100951.75
2022-10-11T15:03:30.149Z,100950.54
2022-10-11T15:06:02.407Z,100949.56
2022-10-11T15:08:34.349Z,100953.32
2022-10-11T15:11:07.636Z,100953.71
2022-10-11T15:13:38.908Z,100956.75
2022-10-11T15:16:12.534Z,100961.61
2022-10-11T15:18:44.640Z,100960.36
2022-10-11T15:21:17.059Z,100962.52
2022-10-11T15:23:49.217Z,100966.44
2022-10-11T15:26:23.432Z,100968.11
2022-10-11T15:28:56.675Z,100971.94
2022-10-11T15:31:28.254Z,100978.27
2022-10-11T15:34:01.949Z,100972.88
2022-10-11T15:36:34.855Z,100979.21
2022-10-11T15:39:21.437Z,100982.98
2022-10-11T15:41:53.177Z,100985.02
2022-10-11T15:44:24.729Z,100989.73
2022-10-11T15:46:56.514Z,100989.85
2022-10-11T15:49:27.763Z,100997.55
2022-10-11T15:51:59.208Z,100998.79
2022-10-11T15:54:30.648Z,101004.45
2022-10-11T15:57:02.682Z,101009.33
2022-10-11T15:59:34.057Z,101011.76
2022-10-11T16:02:05.727Z,101012.45
2022-10-11T16:04:37.659Z,101014.40
2022-10-11T16:07:09.125Z,101014.95
2022-10-11T16:09:40.336Z,101017.88
2022-10-11T16:12:11.735Z,101020.17
2022-10-11T16:14:47.045Z,101020.08
2022-10-11T16:17:18.794Z,101020.59
2022-10-11T16:19:51.107Z,101019.40
2022-10-11T16:22:22.746Z,101020.58
2022-10-11T16:24:54.114Z,101022.89
2022-10-11T16:27:25.403Z,101023.48
2022-10-11T16:29:56.976Z,101027.45
2022-10-11T16:32:28.446Z,101031.69
2022-10-11T16:34:59.729Z,101027.50
2022-10-11T16:37:32.197Z,101030.28
2022-10-11T16:40:03.995Z,101030.41
2022-10-11T16:42:35.943Z,101025.99
2022-10-11T16:45:08.650Z,101030.20
2022-10-11T16:47:40.135Z,101029.14
2022-10-11T16:50:13.459Z,101032.31
2022-10-11T16:52:45.571Z,101033.87
2022-10-11T16:55:16.849Z,101035.77
2022-10-11T16:57:48.125Z,101036.58
2022-10-11T17:00:22.250Z,101039.61
2022-10-11T17:02:55.911Z,101049.52
2022-10-11T17:05:28.232Z,101046.59
2022-10-11T17:08:00.536Z,101052.27
2022-10-11T17:10:39.693Z,101049.94
2022-10-11T17:13:11.383Z,101057.05
2022-10-11T17:15:42.863Z,101056.99
2022-10-11T17:18:14.921Z,101058.14
2022-10-11T17:20:46.681Z,101058.11
2022-10-11T17:23:18.118Z,101059.73
2022-10-11T17:25:50.315Z,101061.11
2022-10-11T17:28:21.983Z,101061.84
2022-10-11T17:30:58.616Z,101059.79
2022-10-11T17:33:31.651Z,101061.77
2022-10-11T17:36:04.131Z,101059.41
2022-10-11T17:38:35.736Z,101059.56
2022-10-11T17:41:09.631Z,101061.83
2022-10-11T17:43:41.594Z,101061.45
2022-10-11T17:46:14.674Z,101067.09
2022-10-11T17:48:46.120Z,101065.02
2022-10-11T17:51:20.502Z,101068.84
2022-10-11T17:53:53.189Z,101066.64
2022-10-11T17:56:29.579Z,101066.65
2022-10-11T17:59:02.863Z,101065.83
2022-10-11T18:01:34.853Z,101066.45
2022-10-11T18:04:08.083Z,101068.91
2022-10-11T18:06:41.608Z,101070.09
2022-10-11T18:09:14.058Z,101068.71
2022-10-11T18:11:45.627Z,101071.58
2022-10-11T18:14:17.407Z,101072.23
2022-10-11T18:16:48.718Z,101077.95
2022-10-11T18:19:20.764Z,101081.82
2022-10-11T18:21:52.150Z,101084.44
2022-10-11T18:24:23.819Z,101082.88
2022-10-11T18:26:55.314Z,101079.23
2022-10-11T18:29:26.638Z,101078.16
2022-10-11T18:31:58.051Z,101075.95
2022-10-11T18:34:29.371Z,101079.63
2022-10-11T18:37:00.898Z,101079.86
2022-10-11T18:39:32.264Z,101081.64
2022-10-11T18:42:05.421Z,101085.02
2022-10-11T18:44:37.017Z,101085.73
2022-10-11T18:47:08.973Z,101084.89
2022-10-11T18:49:40.998Z,101084.84
2022-10-11T18:52:13.472Z,101088.06
2022-10-11T18:54:45.659Z,101089.02
2022-10-11T18:57:17.252Z,101091.84
2022-10-11T18:59:48.684Z,101092.77
2022-10-11T19:02:19.951Z,101093.39
2022-10-11T19:04:53.095Z,101099.17
2022-10-11T19:07:25.405Z,101098.63
2022-10-11T19:09:56.775Z,101097.96
2022-10-11T19:12:28.979Z,101094.42
2022-10-11T19:15:02.290Z,101090.32
2022-10-11T19:17:34.304Z,101090.17
2022-10-11T19:20:06.297Z,101084.31
2022-10-11T19:22:38.219Z,101087.45
2022-10-11T19:25:11.837Z,101083.24
2022-10-11T19:27:43.377Z,101086.65
2022-10-11T19:30:15.492Z,101089.78
2022-10-11T19:32:47.375Z,101085.45
2022-10-11T19:35:20.088Z,101089.59
2022-10-11T19:37:51.971Z,101095.29
2022-10-11T19:40:23.710Z,101095.89
2022-10-11T19:42:55.435Z,101096.20
2022-10-11T19:45:27.268Z,101101.15
2022-10-11T19:48:00.167Z,101104.03
2022-10-11T19:50:31.607Z,101106.38
2022-10-11T19:53:02.863Z,101108.95
2022-10-11T19:55:35.824Z,101107.29
2022-10-11T19:58:08.372Z,101104.65
2022-10-11T20:00:40.064Z,101111.71
2022-10-11T20:03:11.426Z,101114.38
2022-10-11T20:05:43.176Z,101114.34
2022-10-11T20:08:14.685Z,101108.42
2022-10-11T20:10:46.170Z,101112.88
2022-10-11T20:13:18.030Z,101112.48
2022-10-11T20:15:49.428Z,101115.73
2022-10-11T20:18:21.211Z,101115.59
2022-10-11T20:20:57.948Z,101114.75
2022-10-11T20:23:29.755Z,101117.33
2022-10-11T20:26:02.476Z,101118.80
2022-10-11T20:28:35.782Z,101116.19
2022-10-11T20:31:12.826Z,101119.48
2022-10-11T20:33:44.641Z,101123.06
2022-10-11T20:36:18.387Z,101120.81
2022-10-11T20:38:50.824Z,101118.37
2022-10-11T20:41:23.761Z,101122.11
2022-10-11T20:43:57.181Z,101121.73
2022-10-11T20:46:31.668Z,101121.28
2022-10-11T20:49:04.642Z,101118.89
2022-10-11T20:51:38.547Z,101122.13
2022-10-11T20:54:10.517Z,101124.03
2022-10-11T20:56:41.940Z,101132.35
2022-10-11T20:59:13.936Z,101125.30
2022-10-11T21:01:45.655Z,101126.17
2022-10-11T21:04:21.758Z,101129.25
2022-10-11T21:06:53.000Z,101133.85
2022-10-11T21:09:24.535Z,101136.95
2022-10-11T21:11:55.753Z,101133.36
2022-10-11T21:14:27.637Z,101138.35
2022-10-11T21:16:59.251Z,101139.45
2022-10-11T21:19:30.886Z,101139.84
2022-10-11T21:22:02.330Z,101136.58
2022-10-11T21:24:33.790Z,101136.39
2022-10-11T21:27:05.296Z,101136.89
2022-10-11T21:29:36.766Z,101139.39
2022-10-11T21:32:12.013Z,101136.02
2022-10-11T21:34:45.866Z,101135.82
2022-10-11T21:37:17.214Z,101137.66
2022-10-11T21:39:48.633Z,101138.39
2022-10-11T21:42:19.929Z,101138.71
2022-10-11T21:44:51.236Z,101138.64
2022-10-11T21:47:22.906Z,101141.66
2022-10-11T21:49:54.160Z,101147.60
2022-10-11T21:52:25.479Z,101144.67
2022-10-11T21:54:56.696Z,101144.66
2022-10-11T21:57:28.115Z,101143.77
2022-10-11T21:59:59.376Z,101147.66
2022-10-11T22:02:30.596Z,101152.48
2022-10-11T22:05:02.043Z,101151.05
2022-10-11T22:07:33.340Z,101149.84
2022-10-11T22:10:04.706Z,101149.55
2022-10-11T22:12:36.469Z,101146.53
2022-10-11T22:15:09.342Z,101145.55
2022-10-11T22:17:40.640Z,101150.71
2022-10-11T22:20:13.141Z,101150.27
2022-10-11T22:22:44.423Z,101148.14
2022-10-11T22:25:15.729Z,101146.23
2022-10-11T22:27:46.985Z,101150.81
2022-10-11T22:30:18.302Z,101154.70
2022-10-11T22:32:49.541Z,101153.13
2022-10-11T22:35:20.928Z,101151.69
2022-10-11T22:37:52.334Z,101151.33
2022-10-11T22:40:23.863Z,101148.10
2022-10-11T22:42:55.109Z,101154.33
2022-10-11T22:45:26.424Z,101151.31
2022-10-11T22:47:57.651Z,101152.45
2022-10-11T22:50:28.925Z,101155.14
2022-10-11T22:53:00.116Z,101153.48
2022-10-11T22:55:31.315Z,101157.90
2022-10-11T22:58:02.587Z,101160.16
2022-10-11T23:00:33.883Z,101156.09
2022-10-11T23:03:07.357Z,101157.02
2022-10-11T23:05:40.280Z,101159.67
2022-10-11T23:08:11.855Z,101158.41
2022-10-11T23:10:43.323Z,101155.95
2022-10-11T23:13:14.607Z,101158.71
2022-10-11T23:15:45.931Z,101159.98
2022-10-11T23:18:18.351Z,101152.64
2022-10-11T23:20:49.620Z,101160.75
2022-10-11T23:23:20.817Z,101160.61
2022-10-11T23:26:00.963Z,101153.84
2022-10-11T23:28:32.415Z,101157.10
2022-10-11T23:31:06.983Z,101164.61
2022-10-11T23:33:38.322Z,101166.98
2022-10-11T23:36:17.247Z,101167.64
2022-10-11T23:38:51.066Z,101160.91
2022-10-11T23:41:23.785Z,101158.27
2022-10-11T23:43:55.281Z,101159.77
2022-10-11T23:46:26.706Z,101167.02
2022-10-11T23:48:57.993Z,101170.90
2022-10-11T23:51:29.287Z,101167.70
2022-10-11T23:54:00.503Z,101165.14
2022-10-11T23:56:31.690Z,101166.77
2022-10-11T23:59:03.008Z,101166.61
